Saturday, January 20, 2018, 8:24 AM EST
Back to Local

KISP, Islip Long Island Mac Art

Location: Ronkonkoma, NY, United States Lat: 40.8
Local Time: 8:24 AM EST (13:24 GMT) Lon: -73.1
Time Zone: US/Eastern Elev: 98 ft

Show me the last for .
Show Decoded

2018-01-20 06:56 METAR KISP 201156Z 23011KT 10SM BKN250 03/M04 A2984 RMK AO2 SLP107 T00281039
                 10028 20000 58014 =
2018-01-20 05:56 METAR KISP 201056Z 22009KT 10SM FEW250 02/M04 A2987 RMK AO2 SLP114 T00221039 =
2018-01-20 04:56 METAR KISP 200956Z AUTO 22007KT 10SM CLR 01/M04 A2988 RMK AO2 SLP117 T00111044 =
2018-01-20 03:56 METAR KISP 200856Z AUTO 22004KT 10SM CLR 02/M04 A2988 RMK AO2 SLP120 T00171039
                 58013 =
2018-01-20 01:56 METAR KISP 200656Z AUTO 23008KT 10SM CLR 01/M03 A2991 RMK AO2 SLP130 T00111033 =
2018-01-20 00:56 METAR KISP 200556Z AUTO 22009KT 10SM CLR 01/M02 A2992 RMK AO2 SLP133 T00111022
                 10011 21033 57017 =
2018-01-19 23:56 METAR KISP 200456Z 23005KT 10SM FEW250 00/M03 A2994 RMK AO2 SLP139 LAST
                 T00001033 400331067 =
2018-01-19 22:56 METAR KISP 200356Z 23004KT 10SM FEW250 00/M04 A2996 RMK AO2 SLP144 T00001039 =
2018-01-19 21:56 METAR KISP 200256Z 22006KT 10SM FEW250 01/M03 A2997 RMK AO2 SLP150 T00061033
                 58003 =
2018-01-19 20:56 METAR KISP 200156Z 00000KT 10SM SCT250 M03/M07 A2999 RMK AO2 SLP156 T10331072 =
2018-01-19 19:56 METAR KISP 200056Z 00000KT 10SM SCT250 M02/M08 A2999 RMK AO2 SLP157 T10221078 =
2018-01-19 18:56 METAR KISP 192356Z 15004KT 10SM FEW200 SCT250 00/M08 A2998 RMK AO2 SLP154
                 T00001078 10033 21006 50001 =
2018-01-19 17:56 METAR KISP 192256Z 00000KT 10SM FEW200 BKN250 M01/M08 A2998 RMK AO2 SLP155
                 T10061078 =
2018-01-19 16:56 METAR KISP 192156Z 22004KT 10SM FEW180 BKN250 01/M08 A2999 RMK AO2 SLP155
                 T00111083 =
2018-01-19 15:56 METAR KISP 192056Z 27004KT 10SM SCT180 BKN250 03/M08 A2998 RMK AO2 SLP153
                 T00281083 55002 =
2018-01-19 14:56 METAR KISP 191956Z 28010KT 10SM FEW180 BKN250 03/M08 A2997 RMK AO2 SLP148
                 T00331083 =
2018-01-19 13:56 METAR KISP 191856Z 27012KT 10SM FEW180 BKN250 02/M09 A2997 RMK AO2 SLP151
                 T00221089 =
2018-01-19 12:56 METAR KISP 191756Z 28009KT 10SM BKN180 OVC250 02/M09 A2999 RMK AO2 SLP155
                 T00221089 10028 21056 58027 =
2018-01-19 11:56 METAR KISP 191656Z 30010KT 10SM BKN180 OVC250 02/M09 A3002 RMK AO2 SLP166
                 T00171089 =
2018-01-19 10:56 METAR KISP 191556Z 29010G17KT 10SM BKN180 OVC250 02/M09 A3004 RMK AO2 SLP174
                 T00171089 =
2018-01-19 09:56 METAR KISP 191456Z 27008KT 10SM BKN180 OVC250 01/M08 A3007 RMK AO2 SLP182
                 T00061078 51008 =
2018-01-19 08:56 METAR KISP 191356Z 26007KT 10SM BKN200 BKN250 M02/M08 A3006 RMK AO2 SLP181
                 T10171078 =

Support USWX by starting your Amazon purchase here.